Aviation Digital Data Service (ADDS)

Output produced by METARs form (1218 UTC 17 September 2019)
found at http://www.aviationweather.gov/metar/data/
 
VTUK 171200Z 32003KT 290V360 9000 SCT020 BKN080 28/24 Q1007 NOSIG
VTUK 171100Z VRB04KT 9000 -RA FEW018CB SCT020 BKN080 29/24 Q1006 TEMPO FM1115 TL1200 5000 TSRA
VTUK 171000Z VRB02KT 9000 VCSH SCT020 BKN080 28/24 Q1006 NOSIG
VTUK 170900Z 12006G16KT 040V200 9000 -TSRA FEW018CB SCT020 BKN080 30/24 Q1006 NOSIG
VTUK 170800Z 03006KT 350V060 9999 VCSH SCT025 SCT080 34/24 Q1006 TEMPO FM0815 TL0900 5000 RA
VTUK 170700Z 04006KT 340V120 9999 SCT030 SCT100 34/23 Q1006 NOSIG
VTUK 170600Z 08006KT 030V160 9999 SCT030 SCT100 34/23 Q1007 NOSIG
VTUK 170500Z 09006KT 030V160 9999 SCT030 33/24 Q1009 NOSIG
VTUK 170400Z VRB05KT 9000 SCT030 33/24 Q1010 NOSIG
VTUK 170300Z VRB07KT 9000 SCT025 32/24 Q1010 NOSIG
VTUK 170200Z 07005KT 020V130 9000 FEW025 32/23 Q1010 NOSIG
VTUK 170100Z 08003KT 030V160 8000 NSC 30/25 Q1009 NOSIG
VTUK 170000Z VRB02KT 6000 FEW035 26/25 Q1009 NOSIG
VTUK 162300Z VRB02KT 8000 FEW035 25/25 Q1008 NOSIG
VTUK 162200Z 35002KT 8000 NSC 25/24 Q1007 NOSIG
VTUK 162100Z 00000KT 8000 NSC 25/24 Q1007 NOSIG
VTUK 162000Z VRB02KT 8000 NSC 25/24 Q1007 NOSIG
VTUK 161900Z VRB01KT 8000 NSC 25/25 Q1007 NOSIG
VTUK 161800Z VRB01KT 8000 NSC 25/25 Q1008 NOSIG
VTUK 161700Z 00000KT 8000 NSC 25/24 Q1008 NOSIG
VTUK 161600Z VRB01KT 8000 NSC 26/25 Q1008 NOSIG
VTUK 161500Z 00000KT 9000 NSC 26/24 Q1008 NOSIG
VTUK 161400Z 02003KT 9000 NSC 27/24 Q1007 NOSIG
VTUK 161300Z 35002KT 9000 FEW030 28/24 Q1006 NOSIG
TAF VTUK 171100Z 1712/1812 11005KT 9999 SCT025 SCT100 
     TEMPO 1809/1812 VRB10KT 5000 TSRA FEW018CB BKN020 BKN080